Time;durP1;ratioP1;P1;durP2;ratioP2;P2;SDS_P1;SDS_P2;PMS_P1;PMS_P2;Temp;Humidity;BMP_temperature;BMP_pressure;BME280_temperature;BME280_humidity;BME280_pressure;Samples;Min_cycle;Max_cycle;Signal;HPM_P1;HPM_P2
2023/08/22 00:01:02;;;;;;;13.48;7.22;;;20.80;99.90;;;;;;2603667;54;20050;31
2023/08/22 00:03:37;;;;;;;6.55;5.95;;;20.80;99.90;;;;;;2603273;54;20475;31
2023/08/22 00:06:14;;;;;;;9.50;7.50;;;20.70;99.90;;;;;;2603614;54;20030;31
2023/08/22 00:08:49;;;;;;;9.60;7.50;;;20.80;99.90;;;;;;2701930;39;20535;31
2023/08/22 00:11:23;;;;;;;8.30;7.35;;;20.70;99.90;;;;;;2603573;54;20026;31
2023/08/22 00:13:58;;;;;;;12.43;6.07;;;20.70;99.90;;;;;;2603428;54;20096;31
2023/08/22 00:16:35;;;;;;;6.72;6.05;;;20.70;99.90;;;;;;2603504;54;20034;31
2023/08/22 00:19:10;;;;;;;8.77;6.20;;;20.70;99.90;;;;;;2603372;54;20049;31
2023/08/22 00:21:47;;;;;;;9.37;6.23;;;20.70;99.90;;;;;;2603481;54;20030;31
2023/08/22 00:24:22;;;;;;;10.65;6.78;;;20.70;99.90;;;;;;2603423;54;20895;31
2023/08/22 00:26:57;;;;;;;8.73;6.43;;;20.70;99.90;;;;;;2621871;46;20109;31
2023/08/22 00:29:34;;;;;;;10.02;6.18;;;20.70;99.90;;;;;;2603308;54;19942;31
2023/08/22 00:32:09;;;;;;;7.27;5.70;;;20.70;99.90;;;;;;2621555;46;20033;31
2023/08/22 00:34:43;;;;;;;9.50;7.28;;;20.60;99.90;;;;;;2621769;46;20287;31
2023/08/22 00:37:17;;;;;;;7.30;6.60;;;20.70;99.90;;;;;;2632417;54;20066;-93
2023/08/22 00:39:53;;;;;;;8.10;7.30;;;20.70;99.90;;;;;;2701564;39;20514;31
2023/08/22 00:42:25;;;;;;;7.80;7.00;;;20.70;99.90;;;;;;2632415;54;20007;-92
2023/08/22 00:44:58;;;;;;;11.50;8.50;;;20.70;99.90;;;;;;2603210;54;20037;31
2023/08/22 00:47:32;;;;;;;10.00;7.97;;;20.70;99.90;;;;;;2621929;46;20030;31
2023/08/22 00:50:09;;;;;;;11.70;8.88;;;20.70;99.90;;;;;;2603393;54;20774;31
2023/08/22 00:52:46;;;;;;;9.07;8.18;;;20.70;99.90;;;;;;2621665;46;20910;31
2023/08/22 00:55:21;;;;;;;13.80;8.63;;;20.70;99.90;;;;;;2705446;39;20484;31
2023/08/22 00:57:58;;;;;;;13.15;8.00;;;20.70;99.90;;;;;;2603413;54;20026;31
2023/08/22 01:00:33;;;;;;;9.57;7.03;;;20.70;99.90;;;;;;2621891;46;20578;31
2023/08/22 01:03:11;;;;;;;9.23;7.50;;;20.70;99.90;;;;;;2603239;54;20027;31
2023/08/22 01:05:50;;;;;;;8.60;7.03;;;20.70;99.90;;;;;;2603548;54;20030;31
2023/08/22 01:08:31;;;;;;;7.75;6.80;;;20.70;99.90;;;;;;2621131;46;20876;31
2023/08/22 01:11:05;;;;;;;8.38;7.07;;;20.70;99.90;;;;;;2621715;46;20029;31
2023/08/22 01:13:39;;;;;;;16.38;9.95;;;20.70;99.90;;;;;;2632253;54;20010;-93
2023/08/22 01:16:11;;;;;;;11.40;7.10;;;20.70;99.90;;;;;;2601978;54;20063;31
2023/08/22 01:18:44;;;;;;;9.80;7.85;;;20.60;99.90;;;;;;2772198;31;20880;31
2023/08/22 01:21:21;;;;;;;12.55;7.40;;;20.70;99.90;;;;;;2632180;54;20002;-94
2023/08/22 01:26:27;;;;;;;12.88;7.90;;;20.60;99.90;;;;;;2621729;47;20854;31
2023/08/22 01:29:04;;;;;;;9.25;6.60;;;20.60;99.90;;;;;;2621698;47;20096;31
2023/08/22 01:31:57;;;;;;;9.95;7.53;;;20.50;99.90;;;;;;2621718;47;20898;31
2023/08/22 01:34:31;;;;;;;8.35;6.00;;;20.60;99.90;;;;;;2603093;54;20085;31
2023/08/22 01:37:06;;;;;;;10.45;6.68;;;20.50;99.90;;;;;;2701759;39;21033;31
2023/08/22 01:39:41;;;;;;;15.52;9.02;;;20.50;99.90;;;;;;2621686;47;20022;31
2023/08/22 01:42:19;;;;;;;10.03;7.83;;;20.50;99.90;;;;;;2603192;54;20030;31
2023/08/22 01:44:54;;;;;;;12.17;7.67;;;20.50;99.90;;;;;;2603274;54;20246;31
2023/08/22 01:47:29;;;;;;;7.85;6.20;;;20.50;99.90;;;;;;2603095;54;20030;31
2023/08/22 01:50:05;;;;;;;9.50;7.80;;;20.40;99.90;;;;;;2701607;39;20486;31
2023/08/22 01:52:38;;;;;;;8.10;6.17;;;20.40;99.90;;;;;;2701933;39;21169;31
2023/08/22 01:55:15;;;;;;;9.98;8.43;;;20.40;99.90;;;;;;2603046;54;20322;31
2023/08/22 01:57:53;;;;;;;7.28;6.53;;;20.40;99.90;;;;;;2621728;47;21285;31
2023/08/22 02:00:28;;;;;;;9.07;7.25;;;20.30;99.90;;;;;;2701632;39;20490;31
2023/08/22 02:03:03;;;;;;;9.05;6.85;;;20.30;99.90;;;;;;2603104;54;20046;31
2023/08/22 02:05:38;;;;;;;8.13;6.72;;;20.30;99.90;;;;;;2603021;54;20081;31
2023/08/22 02:08:12;;;;;;;8.50;6.95;;;20.30;99.90;;;;;;2603058;54;21274;31
2023/08/22 02:10:47;;;;;;;9.67;8.50;;;20.20;99.90;;;;;;2621754;47;20023;31
2023/08/22 02:13:24;;;;;;;10.55;7.60;;;20.20;99.90;;;;;;2701656;39;20467;31
2023/08/22 02:15:59;;;;;;;9.67;6.10;;;20.10;99.90;;;;;;2603112;54;20026;31
2023/08/22 02:18:34;;;;;;;8.30;4.85;;;20.10;99.90;;;;;;2621164;47;19957;31
2023/08/22 02:21:09;;;;;;;7.75;6.20;;;20.10;99.90;;;;;;2603150;54;20087;31
2023/08/22 02:23:44;;;;;;;7.57;5.43;;;20.10;99.90;;;;;;2621859;47;20893;31
2023/08/22 02:26:19;;;;;;;7.60;6.80;;;20.10;99.90;;;;;;2603416;54;21660;31
2023/08/22 02:28:56;;;;;;;12.40;8.63;;;20.10;99.90;;;;;;2603753;54;20271;31
2023/08/22 02:31:30;;;;;;;9.73;6.80;;;20.00;99.90;;;;;;2604018;54;20042;31
2023/08/22 02:34:05;;;;;;;9.43;6.60;;;20.00;99.90;;;;;;2622423;46;20038;31
2023/08/22 02:36:40;;;;;;;12.20;7.37;;;20.00;99.90;;;;;;2702261;39;21652;31
2023/08/22 02:39:15;;;;;;;7.57;6.80;;;20.00;99.90;;;;;;2622333;46;20037;31
2023/08/22 02:41:49;;;;;;;9.47;7.77;;;19.90;99.90;;;;;;2603588;54;20050;31
2023/08/22 02:44:30;;;;;;;10.45;7.85;;;19.90;99.90;;;;;;2622481;46;20030;31
2023/08/22 02:47:04;;;;;;;12.10;7.70;;;19.90;99.90;;;;;;2603688;54;20037;31
2023/08/22 02:49:39;;;;;;;9.17;8.23;;;19.90;99.90;;;;;;2603674;54;20930;31
2023/08/22 02:52:15;;;;;;;10.70;6.30;;;19.80;99.90;;;;;;2603912;54;20034;31
2023/08/22 02:54:50;;;;;;;9.35;6.72;;;19.80;99.90;;;;;;2603824;54;20029;31
2023/08/22 02:57:25;;;;;;;9.10;5.60;;;19.80;99.90;;;;;;2622313;46;21315;31
2023/08/22 03:00:04;;;;;;;10.60;6.20;;;19.80;99.90;;;;;;2603667;54;20264;31
2023/08/22 03:02:40;;;;;;;11.48;7.80;;;19.80;99.90;;;;;;2622219;46;20054;31
2023/08/22 03:05:15;;;;;;;11.80;7.35;;;19.80;99.90;;;;;;2603603;54;20037;31
2023/08/22 03:07:52;;;;;;;8.95;6.65;;;19.80;99.90;;;;;;2603628;54;20029;31
2023/08/22 03:10:26;;;;;;;8.07;7.15;;;19.70;99.90;;;;;;2603715;54;20042;31
2023/08/22 03:13:02;;;;;;;8.13;7.35;;;19.70;99.90;;;;;;2622035;46;20026;31
2023/08/22 03:15:42;;;;;;;9.75;8.38;;;19.70;99.90;;;;;;2603578;54;20034;31
2023/08/22 03:18:17;;;;;;;11.05;7.80;;;19.60;99.90;;;;;;2622038;46;20049;31
2023/08/22 03:20:57;;;;;;;14.00;9.30;;;19.60;99.90;;;;;;2603521;54;20057;31
2023/08/22 03:23:32;;;;;;;15.25;10.95;;;19.60;99.90;;;;;;2622020;46;20124;31
2023/08/22 03:26:10;;;;;;;10.50;9.23;;;19.60;99.90;;;;;;2603607;54;20023;31
2023/08/22 03:28:47;;;;;;;9.43;8.13;;;19.60;99.90;;;;;;2603366;54;20030;31
2023/08/22 03:31:26;;;;;;;11.30;9.67;;;19.60;99.90;;;;;;2603736;54;20023;31
2023/08/22 03:34:00;;;;;;;9.32;8.38;;;19.50;99.90;;;;;;2603494;54;20955;31
2023/08/22 03:36:37;;;;;;;9.65;8.32;;;19.60;99.90;;;;;;2603488;54;20964;31
2023/08/22 03:39:14;;;;;;;10.07;7.95;;;19.50;99.90;;;;;;2603330;54;20026;31
2023/08/22 03:41:49;;;;;;;14.27;9.30;;;19.50;99.90;;;;;;2603515;54;19934;31
2023/08/22 03:44:24;;;;;;;13.43;9.52;;;19.50;99.90;;;;;;2603456;54;20039;31
2023/08/22 03:47:02;;;;;;;9.20;7.40;;;19.50;99.90;;;;;;2622090;46;20038;31
2023/08/22 03:49:50;;;;;;;12.68;9.13;;;19.40;99.90;;;;;;2603584;54;20816;31
2023/08/22 03:52:25;;;;;;;11.30;8.60;;;19.40;99.90;;;;;;2603470;54;20926;31
2023/08/22 03:55:00;;;;;;;12.95;8.85;;;19.40;99.90;;;;;;2696919;39;20026;31
2023/08/22 03:57:35;;;;;;;17.75;11.55;;;19.40;99.90;;;;;;2772668;31;21573;31
2023/08/22 04:00:12;;;;;;;18.80;15.32;;;19.40;99.90;;;;;;2621386;46;20863;31
2023/08/22 04:02:56;;;;;;;25.05;22.35;;;19.30;99.90;;;;;;2621954;46;20022;31
2023/08/22 04:05:30;;;;;;;22.30;18.20;;;19.30;99.90;;;;;;2773324;31;21567;31
2023/08/22 04:08:05;;;;;;;21.88;18.52;;;19.30;99.90;;;;;;2603305;54;20037;31
2023/08/22 04:10:40;;;;;;;18.92;14.85;;;19.40;99.90;;;;;;2621719;46;20879;31
2023/08/22 04:13:17;;;;;;;;;;;19.30;99.90;;;;;;2621787;46;20022;31
2023/08/22 04:15:52;;;;;;;15.50;11.10;;;19.40;99.90;;;;;;2603429;54;19938;31
2023/08/22 04:18:30;;;;;;;13.00;9.60;;;19.40;99.90;;;;;;2603374;54;20050;31
2023/08/22 04:21:06;;;;;;;13.63;11.32;;;19.50;99.90;;;;;;2621807;46;20081;31
2023/08/22 04:23:40;;;;;;;21.65;14.20;;;19.50;99.90;;;;;;2603166;54;20046;31
2023/08/22 04:26:15;;;;;;;15.52;12.05;;;19.50;99.90;;;;;;2603222;54;20793;31
2023/08/22 04:28:50;;;;;;;14.10;11.20;;;19.60;99.90;;;;;;2603342;54;20030;31
2023/08/22 04:31:26;;;;;;;15.25;12.60;;;19.70;99.90;;;;;;2603448;54;20050;31
2023/08/22 04:34:07;;;;;;;13.77;10.40;;;19.80;99.90;;;;;;2603228;54;20946;31
2023/08/22 04:36:48;;;;;;;13.88;10.85;;;19.90;99.90;;;;;;2603181;54;20053;31
2023/08/22 04:39:23;;;;;;;11.90;10.20;;;20.00;99.90;;;;;;2603473;54;19935;31
2023/08/22 04:42:08;;;;;;;15.50;9.05;;;20.10;99.90;;;;;;2603488;54;20022;31
2023/08/22 04:45:09;;;;;;;14.55;11.55;;;20.30;99.90;;;;;;2603527;54;20884;31
2023/08/22 04:47:44;;;;;;;12.02;9.90;;;20.40;99.90;;;;;;2603265;54;20912;31
2023/08/22 04:50:22;;;;;;;11.32;8.80;;;20.60;99.90;;;;;;2603400;54;20897;31
2023/08/22 04:52:57;;;;;;;11.90;10.70;;;20.80;99.90;;;;;;2603273;54;20877;31
2023/08/22 04:55:32;;;;;;;12.60;9.65;;;20.90;99.90;;;;;;2603256;54;20250;31
2023/08/22 04:58:07;;;;;;;13.40;9.70;;;21.00;99.90;;;;;;2621610;46;20878;31
2023/08/22 05:00:42;;;;;;;12.32;10.50;;;21.20;99.90;;;;;;2603209;54;20094;31
2023/08/22 05:03:19;;;;;;;13.03;10.60;;;21.20;99.90;;;;;;2701900;39;21032;31
2023/08/22 05:05:58;;;;;;;10.68;8.95;;;21.40;99.90;;;;;;2603529;54;20877;31
2023/08/22 05:08:33;;;;;;;13.90;10.23;;;21.50;99.90;;;;;;2603412;54;20882;31
2023/08/22 05:11:08;;;;;;;12.05;9.43;;;21.70;99.90;;;;;;2603276;54;20031;31
2023/08/22 05:13:41;;;;;;;9.40;8.52;;;21.80;99.90;;;;;;2701968;39;21098;31
2023/08/22 05:16:16;;;;;;;12.30;9.80;;;22.00;99.90;;;;;;2603418;54;20038;31
2023/08/22 05:18:51;;;;;;;14.23;9.15;;;22.10;99.90;;;;;;2621928;46;20061;31
2023/08/22 05:21:28;;;;;;;12.50;9.05;;;22.30;99.90;;;;;;2603150;54;20052;31
2023/08/22 05:24:03;;;;;;;12.20;8.82;;;22.40;99.90;;;;;;2603150;54;20101;31
2023/08/22 05:26:38;;;;;;;11.15;8.98;;;22.60;99.90;;;;;;2603204;54;20825;31
2023/08/22 05:29:14;;;;;;;9.45;7.90;;;22.70;99.90;;;;;;2603147;54;20596;31
2023/08/22 05:31:49;;;;;;;11.10;8.35;;;22.80;99.90;;;;;;2603140;54;20038;31
2023/08/22 05:34:24;;;;;;;13.73;8.35;;;22.90;99.90;;;;;;2621377;47;20936;31
2023/08/22 05:37:02;;;;;;;11.55;8.65;;;23.10;99.90;;;;;;2603169;54;20038;31
2023/08/22 05:39:37;;;;;;;11.93;8.98;;;23.20;99.90;;;;;;2603251;54;20274;31
2023/08/22 05:42:11;;;;;;;;;;;23.10;99.90;;;;;;2603140;54;20037;31
2023/08/22 05:44:46;;;;;;;12.07;8.70;;;23.20;99.90;;;;;;2603283;54;20784;31
2023/08/22 05:47:21;;;;;;;11.70;10.48;;;23.30;99.90;;;;;;2621486;47;20037;31
2023/08/22 05:49:56;;;;;;;10.40;9.32;;;23.40;99.90;;;;;;2621292;47;20904;31
2023/08/22 05:52:33;;;;;;;11.00;9.20;;;23.60;99.90;;;;;;2603248;54;20047;31
2023/08/22 05:55:09;;;;;;;11.10;8.10;;;23.80;99.90;;;;;;2603100;54;20037;31
2023/08/22 05:57:45;;;;;;;10.85;8.55;;;23.90;99.90;;;;;;2603244;54;20595;31
2023/08/22 06:00:20;;;;;;;12.23;10.20;;;24.00;99.90;;;;;;2602988;54;20026;31
2023/08/22 06:03:02;;;;;;;10.05;7.75;;;24.10;99.90;;;;;;2603884;54;21615;31
2023/08/22 06:05:37;;;;;;;11.55;8.90;;;24.30;99.90;;;;;;2622151;46;20912;31
2023/08/22 06:08:15;;;;;;;12.80;9.70;;;24.50;99.90;;;;;;2603892;54;21566;31
2023/08/22 06:10:51;;;;;;;10.68;9.25;;;24.70;99.90;;;;;;2702364;39;21563;31
2023/08/22 06:13:24;;;;;;;10.45;9.38;;;24.90;99.90;;;;;;2702664;39;21034;31
2023/08/22 06:16:00;;;;;;;14.15;9.27;;;25.10;99.90;;;;;;2702288;39;20564;31
2023/08/22 06:18:35;;;;;;;10.48;9.30;;;25.20;99.90;;;;;;2604057;54;20060;31
2023/08/22 06:21:13;;;;;;;11.75;8.23;;;25.40;99.90;;;;;;2603885;54;20026;31
2023/08/22 06:23:50;;;;;;;13.45;9.20;;;25.70;99.90;;;;;;2603696;54;20080;31
2023/08/22 06:26:25;;;;;;;10.37;8.80;;;26.00;99.90;;;;;;2603738;54;20034;31
2023/08/22 06:28:59;;;;;;;10.60;8.52;;;26.10;99.90;;;;;;2702151;39;21558;31
2023/08/22 06:31:34;;;;;;;13.50;9.20;;;26.20;99.90;;;;;;2603873;54;20026;31
2023/08/22 06:34:09;;;;;;;10.30;8.05;;;26.30;99.90;;;;;;2773666;31;20848;31
2023/08/22 06:36:44;;;;;;;12.40;8.35;;;26.50;99.90;;;;;;2622406;46;20187;31
2023/08/22 06:39:22;;;;;;;13.70;8.60;;;26.60;99.90;;;;;;2720541;39;20575;31
2023/08/22 06:41:56;;;;;;;14.45;8.50;;;26.80;99.90;;;;;;2622243;46;20875;31
2023/08/22 06:44:31;;;;;;;;;;;27.00;99.90;;;;;;2622127;46;20884;31
2023/08/22 06:47:06;;;;;;;11.17;8.80;;;27.20;99.90;;;;;;2603454;54;19934;31
2023/08/22 06:49:41;;;;;;;11.63;8.65;;;27.30;99.90;;;;;;2621705;46;20704;31
2023/08/22 06:52:16;;;;;;;13.35;8.27;;;27.50;99.90;;;;;;2603593;54;21469;31
2023/08/22 06:54:54;;;;;;;13.52;9.25;;;27.70;99.90;;;;;;2603509;54;20031;31
2023/08/22 06:57:28;;;;;;;11.55;8.00;;;27.70;99.90;;;;;;2603506;54;20030;31
2023/08/22 07:00:10;;;;;;;9.20;8.30;;;27.80;99.90;;;;;;2603595;54;20579;31
2023/08/22 07:02:47;;;;;;;13.03;8.93;;;28.00;99.90;;;;;;2603398;54;20107;31
2023/08/22 07:05:22;;;;;;;9.80;8.60;;;28.10;99.90;;;;;;2603542;54;20030;31
2023/08/22 07:07:57;;;;;;;11.02;8.15;;;28.20;99.90;;;;;;2603745;54;20033;31
2023/08/22 07:10:35;;;;;;;13.50;10.25;;;28.50;99.90;;;;;;2603910;54;20031;31
2023/08/22 07:13:10;;;;;;;10.70;8.10;;;28.60;99.90;;;;;;2621760;46;20044;31
2023/08/22 07:15:45;;;;;;;12.65;9.07;;;28.80;99.90;;;;;;2701978;39;20459;31
2023/08/22 07:18:20;;;;;;;9.48;7.93;;;28.90;99.90;;;;;;2622413;46;20540;31
2023/08/22 07:20:55;;;;;;;9.10;8.13;;;28.90;99.90;;;;;;2603616;54;20584;31
2023/08/22 07:23:30;;;;;;;10.13;8.57;;;29.00;99.90;;;;;;2603760;54;20029;31
2023/08/22 07:26:08;;;;;;;9.55;7.38;;;29.20;99.90;;;;;;2622324;46;20049;31
2023/08/22 07:28:42;;;;;;;9.93;7.50;;;29.30;99.90;;;;;;2603684;54;20842;31
2023/08/22 07:31:17;;;;;;;11.85;7.80;;;29.40;99.90;;;;;;2603528;54;20089;31
2023/08/22 07:33:52;;;;;;;13.85;7.43;;;29.60;99.90;;;;;;2603673;54;20882;31
2023/08/22 07:36:29;;;;;;;10.77;6.60;;;29.80;99.90;;;;;;2702121;39;20416;31
2023/08/22 07:39:04;;;;;;;7.90;7.10;;;30.00;99.90;;;;;;2603707;54;20127;31
2023/08/22 07:41:42;;;;;;;8.30;7.00;;;30.10;99.90;;;;;;2603736;54;20027;31
2023/08/22 07:44:17;;;;;;;7.97;6.40;;;30.10;99.90;;;;;;2603397;54;20245;31
2023/08/22 07:46:53;;;;;;;9.05;6.15;;;30.30;99.90;;;;;;2603704;54;20022;31
2023/08/22 07:49:28;;;;;;;7.60;6.50;;;30.30;99.90;;;;;;2622123;46;20081;31
2023/08/22 07:52:03;;;;;;;9.25;7.00;;;30.50;99.90;;;;;;2621650;46;20081;31
2023/08/22 07:54:38;;;;;;;7.90;5.45;;;30.50;99.90;;;;;;2720512;39;21382;31
2023/08/22 07:57:14;;;;;;;8.80;6.13;;;30.60;99.90;;;;;;2603387;54;20048;31
2023/08/22 07:59:52;;;;;;;7.47;5.72;;;30.80;99.90;;;;;;2602499;54;20053;31
2023/08/22 08:02:26;;;;;;;6.55;5.40;;;30.80;99.90;;;;;;2602459;54;20034;31
2023/08/22 08:04:58;;;;;;;8.32;5.63;;;30.90;99.90;;;;;;2632490;54;20014;-94
2023/08/22 08:07:32;;;;;;;8.60;5.60;;;30.90;99.90;;;;;;2617094;46;20895;31
2023/08/22 08:10:08;;;;;;;9.70;5.88;;;30.90;99.90;;;;;;2603432;54;20026;31
2023/08/22 08:12:45;;;;;;;10.17;5.60;;;30.80;99.90;;;;;;2603518;54;20611;31
2023/08/22 08:15:20;;;;;;;8.25;5.60;;;30.90;99.90;;;;;;2603374;54;20038;31
2023/08/22 08:17:58;;;;;;;9.00;5.60;;;30.90;99.90;;;;;;2622362;46;20902;31
2023/08/22 08:20:32;;;;;;;8.05;5.97;;;31.00;99.90;;;;;;2622206;46;20155;31
2023/08/22 08:23:05;;;;;;;7.70;5.72;;;31.00;99.90;;;;;;2621100;46;20023;31
2023/08/22 08:25:40;;;;;;;6.43;5.38;;;31.10;99.90;;;;;;2603154;54;21643;31
2023/08/22 08:28:18;;;;;;;6.90;5.65;;;31.20;99.90;;;;;;2603339;54;20022;31
2023/08/22 08:30:52;;;;;;;6.50;5.30;;;31.30;99.90;;;;;;2621317;46;20068;31
2023/08/22 08:33:27;;;;;;;8.27;6.10;;;31.40;99.90;;;;;;2701536;39;20428;31
2023/08/22 08:36:00;;;;;;;8.07;5.78;;;31.30;99.90;;;;;;2602358;54;19931;31
2023/08/22 08:38:35;;;;;;;10.60;5.70;;;31.50;99.90;;;;;;2701525;39;20424;31
2023/08/22 08:41:10;;;;;;;6.45;4.80;;;31.60;99.90;;;;;;2702545;39;20420;31
2023/08/22 08:43:46;;;;;;;8.38;5.55;;;31.80;99.90;;;;;;2620898;46;20579;31
2023/08/22 08:46:20;;;;;;;8.90;6.00;;;31.80;99.90;;;;;;2621920;46;20941;31
2023/08/22 08:48:55;;;;;;;7.13;6.43;;;31.90;99.90;;;;;;2603549;54;20023;31
2023/08/22 08:51:31;;;;;;;8.55;5.95;;;31.80;99.90;;;;;;2720269;39;20477;31
2023/08/22 08:54:05;;;;;;;9.10;5.90;;;31.90;99.90;;;;;;2701769;39;20540;31
2023/08/22 08:56:40;;;;;;;10.15;6.55;;;32.00;99.90;;;;;;2701719;39;20496;31
2023/08/22 08:59:18;;;;;;;8.47;6.57;;;32.20;99.90;;;;;;2603127;54;20793;31
2023/08/22 09:01:55;;;;;;;9.35;6.45;;;32.10;99.90;;;;;;2603599;54;20254;31
2023/08/22 09:04:29;;;;;;;;;;;32.10;99.90;;;;;;2614222;46;20057;31
2023/08/22 09:07:04;;;;;;;9.63;6.00;;;32.20;99.90;;;;;;2603451;54;19941;31
2023/08/22 09:09:39;;;;;;;7.95;5.75;;;32.30;99.90;;;;;;2603401;54;20033;31
2023/08/22 09:12:15;;;;;;;6.53;5.20;;;32.30;99.90;;;;;;2621590;46;20813;31
2023/08/22 09:14:49;;;;;;;7.20;5.97;;;32.40;99.90;;;;;;2603312;54;20156;31
2023/08/22 09:17:30;;;;;;;8.60;5.85;;;32.40;99.90;;;;;;2603130;54;20033;31
2023/08/22 09:20:10;;;;;;;7.18;6.47;;;32.50;99.90;;;;;;2603088;54;21559;31
2023/08/22 09:22:45;;;;;;;6.10;5.32;;;32.50;99.90;;;;;;2603314;54;20042;31
2023/08/22 09:25:20;;;;;;;8.75;5.88;;;32.50;99.90;;;;;;2603136;54;20600;31
2023/08/22 09:27:54;;;;;;;;;;;32.50;99.90;;;;;;2603432;54;20845;31
2023/08/22 09:30:29;;;;;;;9.38;5.85;;;32.50;99.90;;;;;;2603179;54;19939;31
2023/08/22 09:33:08;;;;;;;9.50;6.43;;;32.50;99.90;;;;;;2603019;54;20925;31
2023/08/22 09:35:42;;;;;;;6.25;5.28;;;32.20;99.90;;;;;;2603063;54;20801;31
2023/08/22 09:38:17;;;;;;;6.38;5.28;;;32.10;99.90;;;;;;2603821;54;20823;31
2023/08/22 09:40:55;;;;;;;8.45;5.60;;;32.00;99.90;;;;;;2622258;46;19939;31
2023/08/22 09:43:29;;;;;;;9.25;5.90;;;31.80;99.90;;;;;;2603805;54;20809;31
2023/08/22 09:46:04;;;;;;;5.80;5.20;;;31.70;99.90;;;;;;2603832;54;20053;31
2023/08/22 09:48:42;;;;;;;5.88;5.10;;;31.70;99.90;;;;;;2603870;54;20938;31
2023/08/22 09:51:16;;;;;;;7.25;4.93;;;31.80;99.90;;;;;;2622224;46;20786;31
2023/08/22 09:53:53;;;;;;;7.40;5.10;;;31.80;99.90;;;;;;2622102;46;20682;31
2023/08/22 09:56:28;;;;;;;7.97;5.10;;;31.70;99.90;;;;;;2622206;46;20034;31
2023/08/22 09:59:04;;;;;;;6.35;5.05;;;31.60;99.90;;;;;;2622685;46;20335;31
2023/08/22 10:01:40;;;;;;;6.15;4.60;;;31.50;99.90;;;;;;2603771;54;20845;31
2023/08/22 10:04:19;;;;;;;5.80;4.70;;;31.50;99.90;;;;;;2603989;54;20827;31
2023/08/22 10:06:54;;;;;;;8.40;4.82;;;31.50;99.90;;;;;;2603901;54;20911;31
2023/08/22 10:09:29;;;;;;;5.57;4.87;;;31.50;99.90;;;;;;2603870;54;20588;31
2023/08/22 10:12:07;;;;;;;6.45;5.10;;;31.50;99.90;;;;;;2603999;54;20073;31
2023/08/22 10:14:45;;;;;;;4.78;4.18;;;31.60;99.90;;;;;;2622274;46;20085;31
2023/08/22 10:17:19;;;;;;;4.55;3.95;;;31.70;99.90;;;;;;2603721;54;20832;31
2023/08/22 10:20:04;;;;;;;5.40;3.85;;;31.60;99.90;;;;;;2702183;39;20489;31
2023/08/22 10:22:39;;;;;;;7.75;4.60;;;31.70;99.90;;;;;;2622017;46;20034;31
2023/08/22 10:25:13;;;;;;;;;;;31.80;99.90;;;;;;2622168;46;20057;31
2023/08/22 10:27:50;;;;;;;8.18;4.90;;;31.90;99.90;;;;;;2603684;54;20489;31
2023/08/22 10:30:25;;;;;;;6.65;5.22;;;32.00;99.90;;;;;;2720957;39;20536;31
2023/08/22 10:33:07;;;;;;;9.05;5.15;;;32.00;99.90;;;;;;2603583;54;20027;31
2023/08/22 10:36:09;;;;;;;5.22;4.55;;;32.00;99.90;;;;;;2721027;39;20473;31
2023/08/22 10:38:53;;;;;;;5.50;4.93;;;31.90;99.90;;;;;;2603619;54;20100;31
2023/08/22 10:41:46;;;;;;;6.57;5.22;;;31.70;99.90;;;;;;2603611;54;20038;31
2023/08/22 10:44:26;;;;;;;7.68;5.43;;;31.60;99.90;;;;;;2603953;54;20503;31
2023/08/22 10:47:05;;;;;;;6.95;4.55;;;31.50;99.90;;;;;;2622375;46;20797;31
2023/08/22 10:49:41;;;;;;;7.80;5.10;;;31.40;99.90;;;;;;2622101;46;20908;31
2023/08/22 10:52:41;;;;;;;5.30;4.80;;;31.40;99.90;;;;;;2603833;54;20836;31
2023/08/22 10:55:15;;;;;;;8.00;4.85;;;31.60;99.90;;;;;;2603666;54;20569;31
2023/08/22 10:57:50;;;;;;;8.50;4.95;;;31.60;99.90;;;;;;2622039;46;20116;31
2023/08/22 11:00:25;;;;;;;;;;;31.80;99.90;;;;;;2603926;54;20030;31
2023/08/22 11:03:00;;;;;;;5.93;4.95;;;31.90;99.90;;;;;;2603878;54;19957;31
2023/08/22 11:05:35;;;;;;;5.50;4.83;;;31.80;99.90;;;;;;2603562;54;20585;31
2023/08/22 11:08:13;;;;;;;6.63;5.00;;;31.80;99.90;;;;;;2603865;54;20107;31
2023/08/22 11:10:49;;;;;;;5.70;5.15;;;31.80;99.90;;;;;;2603710;54;20026;31
2023/08/22 11:13:24;;;;;;;5.55;5.03;;;31.70;99.90;;;;;;2621430;46;20030;31
2023/08/22 11:16:01;;;;;;;8.55;6.43;;;31.60;99.90;;;;;;2603024;54;20048;31
2023/08/22 11:18:36;;;;;;;7.63;5.28;;;31.60;99.90;;;;;;2603444;54;20023;31
2023/08/22 11:21:13;;;;;;;9.10;5.15;;;31.70;99.90;;;;;;2603501;54;20905;31
2023/08/22 11:23:48;;;;;;;;;;;31.70;99.90;;;;;;2603660;54;19941;31
2023/08/22 11:26:23;;;;;;;7.47;4.85;;;31.70;99.90;;;;;;2603455;54;19942;31
2023/08/22 11:28:59;;;;;;;;;;;31.70;99.90;;;;;;2621987;46;20807;31
2023/08/22 11:31:34;;;;;;;;;;;31.70;99.90;;;;;;2622314;46;19941;31
2023/08/22 11:34:08;;;;;;;6.55;4.85;;;31.70;99.90;;;;;;2603407;54;20858;31
2023/08/22 11:36:44;;;;;;;7.70;5.20;;;31.70;99.90;;;;;;2603285;54;20797;31
2023/08/22 11:39:22;;;;;;;6.55;5.47;;;31.70;99.90;;;;;;2621943;46;20027;31
2023/08/22 11:41:57;;;;;;;7.65;5.63;;;31.70;99.90;;;;;;2603324;54;20048;31
2023/08/22 11:44:32;;;;;;;5.90;5.33;;;31.60;99.90;;;;;;2603649;54;20031;31
2023/08/22 11:47:13;;;;;;;8.60;5.10;;;31.60;99.90;;;;;;2619902;46;20080;31
2023/08/22 11:49:54;;;;;;;6.45;5.10;;;31.70;99.90;;;;;;2621889;46;20048;31
2023/08/22 11:52:31;;;;;;;7.83;5.30;;;31.50;99.90;;;;;;2621886;46;20880;31
2023/08/22 11:55:10;;;;;;;6.50;5.20;;;31.50;99.90;;;;;;2603579;54;20813;31
2023/08/22 11:57:45;;;;;;;7.40;4.65;;;31.50;99.90;;;;;;2603552;54;20050;31
2023/08/22 12:00:20;;;;;;;5.20;4.70;;;31.50;99.90;;;;;;2603219;54;20802;31
2023/08/22 12:02:55;;;;;;;;;;;31.50;99.90;;;;;;2603826;54;19942;31
2023/08/22 12:05:32;;;;;;;8.00;5.13;;;31.50;99.90;;;;;;2603345;54;20020;31
2023/08/22 12:08:22;;;;;;;5.38;4.88;;;31.40;99.90;;;;;;2621885;46;20022;31
2023/08/22 12:11:01;;;;;;;7.18;5.55;;;31.30;99.90;;;;;;2603401;54;20026;31
2023/08/22 12:13:35;;;;;;;7.40;5.80;;;31.20;99.90;;;;;;2603245;54;20031;31
2023/08/22 12:16:10;;;;;;;5.22;4.72;;;31.10;99.90;;;;;;2603322;54;20890;31
2023/08/22 12:18:48;;;;;;;5.18;4.68;;;31.10;99.90;;;;;;2603205;54;20868;31
2023/08/22 12:21:22;;;;;;;5.65;5.15;;;31.10;99.90;;;;;;2603394;54;20082;31
2023/08/22 12:23:57;;;;;;;5.43;4.93;;;31.10;99.90;;;;;;2603308;54;20887;31
2023/08/22 12:26:36;;;;;;;7.28;4.80;;;31.20;99.90;;;;;;2701904;39;20481;31
2023/08/22 12:29:12;;;;;;;6.55;4.47;;;31.20;99.90;;;;;;2621718;46;20022;31
2023/08/22 12:31:47;;;;;;;5.68;4.75;;;31.20;99.90;;;;;;2603218;54;20023;31
2023/08/22 12:34:22;;;;;;;5.00;4.30;;;31.20;99.90;;;;;;2603303;54;20026;31
2023/08/22 12:36:58;;;;;;;5.72;5.20;;;31.30;99.90;;;;;;2701926;39;20577;31
2023/08/22 12:39:33;;;;;;;5.67;4.77;;;31.30;99.90;;;;;;2773302;31;20626;31
2023/08/22 12:42:11;;;;;;;5.45;4.90;;;31.30;99.90;;;;;;2621540;46;20278;31
2023/08/22 12:44:45;;;;;;;5.60;4.50;;;31.30;99.90;;;;;;2720208;39;20483;31
2023/08/22 12:47:20;;;;;;;7.13;4.63;;;31.20;99.90;;;;;;2701916;39;20489;31
2023/08/22 12:49:56;;;;;;;5.05;4.32;;;31.20;99.90;;;;;;2603234;54;20033;31
2023/08/22 12:52:31;;;;;;;5.80;4.20;;;31.20;99.90;;;;;;2603202;54;20038;31
2023/08/22 12:55:08;;;;;;;5.97;4.95;;;31.30;99.90;;;;;;2603320;54;20727;31
2023/08/22 12:57:47;;;;;;;6.03;4.80;;;31.30;99.90;;;;;;2603287;54;20033;31
2023/08/22 13:00:20;;;;;;;7.07;4.30;;;31.20;99.90;;;;;;2603180;54;20587;31
2023/08/22 13:02:55;;;;;;;6.50;5.30;;;31.40;99.90;;;;;;2621717;46;20874;31
2023/08/22 13:05:30;;;;;;;5.50;4.95;;;31.30;99.90;;;;;;2603245;54;20709;31
2023/08/22 13:08:05;;;;;;;4.95;4.30;;;31.30;99.90;;;;;;2603371;54;20033;31
2023/08/22 13:10:40;;;;;;;5.93;4.50;;;31.30;99.90;;;;;;2603182;54;21562;31
2023/08/22 13:13:18;;;;;;;5.30;4.80;;;31.30;99.90;;;;;;2701638;39;21563;31
2023/08/22 13:15:52;;;;;;;5.30;4.77;;;31.30;99.90;;;;;;2603355;54;20049;31
2023/08/22 13:18:28;;;;;;;6.22;4.72;;;31.30;99.90;;;;;;2701677;39;21439;31
2023/08/22 13:21:03;;;;;;;5.13;4.63;;;31.30;99.90;;;;;;2621585;46;20029;31
2023/08/22 13:23:38;;;;;;;8.32;4.90;;;31.30;99.90;;;;;;2603102;54;21595;31
2023/08/22 13:26:13;;;;;;;5.07;4.38;;;31.20;99.90;;;;;;2603294;54;21394;31
2023/08/22 13:28:51;;;;;;;4.95;4.30;;;31.30;99.90;;;;;;2603119;54;20042;31
2023/08/22 13:31:27;;;;;;;5.60;4.65;;;31.20;99.90;;;;;;2603257;54;21635;31
2023/08/22 13:34:02;;;;;;;5.85;4.90;;;31.20;99.90;;;;;;2603186;54;20934;31
2023/08/22 13:36:36;;;;;;;;;;;31.20;99.90;;;;;;2621984;47;20592;31
2023/08/22 13:39:11;;;;;;;6.32;5.22;;;31.10;99.90;;;;;;2603100;54;19941;31
2023/08/22 13:41:46;;;;;;;6.60;5.00;;;31.20;99.90;;;;;;2603184;54;20025;31
2023/08/22 13:44:24;;;;;;;9.20;4.20;;;31.20;99.90;;;;;;2603219;54;20880;31